createdAt,value
2018-07-11T00:00:23.685Z,16.25
2018-07-11T00:02:52.501Z,5.53
2018-07-11T00:05:21.102Z,37.00
2018-07-11T00:07:49.626Z,12.78
2018-07-11T00:10:18.173Z,10.15
2018-07-11T00:12:46.681Z,12.60
2018-07-11T00:15:15.214Z,19.95
2018-07-11T00:17:43.735Z,17.73
2018-07-11T00:20:12.301Z,22.13
2018-07-11T00:22:40.850Z,13.08
2018-07-11T00:25:09.418Z,9.23
2018-07-11T00:27:37.984Z,16.05
2018-07-11T00:30:06.700Z,10.35
2018-07-11T00:32:35.242Z,7.72
2018-07-11T00:35:03.829Z,7.28
2018-07-11T00:37:32.528Z,8.00
2018-07-11T00:40:01.078Z,9.15
2018-07-11T00:42:29.651Z,8.05
2018-07-11T00:44:58.226Z,7.20
2018-07-11T00:47:26.875Z,12.30
2018-07-11T00:50:06.059Z,7.00
2018-07-11T00:52:34.621Z,6.50
2018-07-11T00:55:03.194Z,7.15
2018-07-11T00:57:32.266Z,8.78
2018-07-11T01:00:00.823Z,7.10
2018-07-11T01:02:29.421Z,6.08
2018-07-11T01:04:57.979Z,8.45
2018-07-11T01:07:26.538Z,14.78
2018-07-11T01:09:55.097Z,9.15
2018-07-11T01:12:23.639Z,9.43
2018-07-11T01:14:52.201Z,11.12
2018-07-11T01:17:25.772Z,8.68
2018-07-11T01:19:54.354Z,9.80
2018-07-11T01:22:22.900Z,11.68
2018-07-11T01:24:51.401Z,7.72
2018-07-11T01:27:19.934Z,7.95
2018-07-11T01:29:48.141Z,11.95
2018-07-11T01:32:16.666Z,9.50
2018-07-11T01:34:45.242Z,17.02
2018-07-11T01:37:13.755Z,12.78
2018-07-11T01:39:41.934Z,13.35
2018-07-11T01:42:10.642Z,12.58
2018-07-11T01:44:39.192Z,10.05
2018-07-11T01:47:07.707Z,9.90
2018-07-11T01:49:36.279Z,9.78
2018-07-11T01:52:15.990Z,9.80
2018-07-11T01:54:44.553Z,11.65
2018-07-11T01:57:13.150Z,9.10
2018-07-11T01:59:41.826Z,13.60
2018-07-11T02:02:10.322Z,11.40
2018-07-11T02:04:40.415Z,12.40
2018-07-11T02:07:09.671Z,8.83
2018-07-11T02:09:38.282Z,9.58
2018-07-11T02:12:06.934Z,9.83
2018-07-11T02:14:37.403Z,16.45
2018-07-11T02:17:05.981Z,9.30
2018-07-11T02:19:34.553Z,15.18
2018-07-11T02:22:03.118Z,11.03
2018-07-11T02:24:31.729Z,16.57
2018-07-11T02:27:00.643Z,13.50
2018-07-11T02:29:29.211Z,12.88
2018-07-11T02:31:57.765Z,23.35
2018-07-11T02:34:31.616Z,14.18
2018-07-11T02:37:00.223Z,14.87
2018-07-11T02:39:28.758Z,19.95
2018-07-11T02:41:57.714Z,20.17
2018-07-11T02:44:26.302Z,21.73
2018-07-11T02:47:00.087Z,18.23
2018-07-11T02:49:28.644Z,19.50
2018-07-11T02:51:57.231Z,18.67
2018-07-11T02:54:25.763Z,17.55
2018-07-11T02:56:54.298Z,17.80
2018-07-11T02:59:22.903Z,21.02
2018-07-11T03:01:51.485Z,22.17
2018-07-11T03:04:20.053Z,32.15
2018-07-11T03:06:48.613Z,29.37
2018-07-11T03:09:17.268Z,26.23
2018-07-11T03:11:45.816Z,23.73
2018-07-11T03:14:14.327Z,33.18
2018-07-11T03:16:42.865Z,25.97
2018-07-11T03:19:11.361Z,31.52
2018-07-11T03:21:39.901Z,26.75
2018-07-11T03:24:08.474Z,22.42
2018-07-11T03:26:37.050Z,23.50
2018-07-11T03:29:05.608Z,21.97
2018-07-11T03:31:34.108Z,23.20
2018-07-11T03:34:02.645Z,27.70
2018-07-11T03:36:31.181Z,23.62
2018-07-11T03:38:59.646Z,25.20
2018-07-11T03:41:28.267Z,28.00
2018-07-11T03:43:56.786Z,27.05
2018-07-11T03:46:25.318Z,29.40
2018-07-11T03:48:53.825Z,28.95
2018-07-11T03:51:22.348Z,26.27
2018-07-11T03:53:50.975Z,27.75
2018-07-11T03:56:19.744Z,28.45
2018-07-11T03:58:48.274Z,26.62
2018-07-11T04:01:16.823Z,22.35
2018-07-11T04:03:45.362Z,30.10
2018-07-11T04:06:13.958Z,26.40
2018-07-11T04:08:42.473Z,31.75
2018-07-11T04:11:11.050Z,26.12
2018-07-11T04:13:39.589Z,27.20
2018-07-11T04:16:08.133Z,26.80
2018-07-11T04:18:36.639Z,34.92
2018-07-11T04:21:05.474Z,29.05
2018-07-11T04:23:34.043Z,32.20
2018-07-11T04:26:02.587Z,29.50
2018-07-11T04:28:31.190Z,25.75
2018-07-11T04:30:59.752Z,28.55
2018-07-11T04:33:28.400Z,25.65
2018-07-11T04:35:56.886Z,27.90
2018-07-11T04:38:29.552Z,32.08
2018-07-11T04:40:58.105Z,33.43
2018-07-11T04:43:27.737Z,27.27
2018-07-11T04:45:57.014Z,27.48
2018-07-11T04:48:26.051Z,28.30
2018-07-11T04:50:54.642Z,27.00
2018-07-11T04:53:24.315Z,31.75
2018-07-11T04:56:07.609Z,27.70
2018-07-11T04:58:36.150Z,26.60
2018-07-11T05:01:04.645Z,24.57
2018-07-11T05:03:33.213Z,28.63
2018-07-11T05:06:01.725Z,21.68
2018-07-11T05:08:30.289Z,22.87
2018-07-11T05:10:58.963Z,29.43
2018-07-11T05:13:27.374Z,24.60
2018-07-11T05:15:55.903Z,29.20
2018-07-11T05:18:24.464Z,27.13
2018-07-11T05:20:53.003Z,25.17
2018-07-11T05:23:21.592Z,24.83
2018-07-11T05:25:50.220Z,25.93
2018-07-11T05:28:18.790Z,30.43
2018-07-11T05:30:47.273Z,34.60
2018-07-11T05:33:15.786Z,29.20
2018-07-11T05:35:44.329Z,26.97
2018-07-11T05:38:12.894Z,27.60
2018-07-11T05:40:41.439Z,29.67
2018-07-11T05:43:10.072Z,26.17
2018-07-11T05:45:38.606Z,24.33
2018-07-11T05:48:07.189Z,24.37
2018-07-11T05:50:35.734Z,28.40
2018-07-11T05:53:04.458Z,30.27
2018-07-11T05:55:32.970Z,24.80
2018-07-11T05:58:01.526Z,25.70
2018-07-11T06:00:30.401Z,25.10
2018-07-11T06:02:58.900Z,25.07
2018-07-11T06:05:27.439Z,30.43
2018-07-11T06:07:55.937Z,32.27
2018-07-11T06:10:24.455Z,29.03
2018-07-11T06:12:52.954Z,30.27
2018-07-11T06:15:21.525Z,32.70
2018-07-11T06:17:50.005Z,31.30
2018-07-11T06:20:18.643Z,32.67
2018-07-11T06:22:47.129Z,35.30
2018-07-11T06:25:15.586Z,38.17
2018-07-11T06:27:44.125Z,33.93
2018-07-11T06:30:12.666Z,33.37
2018-07-11T06:32:41.211Z,35.03
2018-07-11T06:35:09.695Z,34.07
2018-07-11T06:37:38.193Z,30.00
2018-07-11T06:40:06.756Z,30.50
2018-07-11T06:42:35.609Z,34.60
2018-07-11T06:45:04.190Z,34.90
2018-07-11T06:47:32.630Z,27.80
2018-07-11T06:50:01.112Z,37.50
2018-07-11T06:52:29.634Z,30.30
2018-07-11T06:54:58.117Z,31.17
2018-07-11T06:57:26.576Z,26.07
2018-07-11T06:59:54.793Z,26.17
2018-07-11T07:02:23.355Z,26.10
2018-07-11T07:04:51.891Z,28.63
2018-07-11T07:07:20.410Z,24.20
2018-07-11T07:09:48.895Z,29.37
2018-07-11T07:12:17.376Z,26.53
2018-07-11T07:14:45.836Z,27.23
2018-07-11T07:17:14.269Z,32.57
2018-07-11T07:19:42.744Z,28.00
2018-07-11T07:22:11.273Z,27.80
2018-07-11T07:24:39.744Z,30.67
2018-07-11T07:27:08.355Z,25.70
2018-07-11T07:29:36.843Z,27.47
2018-07-11T07:32:05.417Z,24.47
2018-07-11T07:34:34.031Z,22.50
2018-07-11T07:37:02.559Z,25.77
2018-07-11T07:39:31.165Z,24.80
2018-07-11T07:41:59.549Z,25.13
2018-07-11T07:44:28.049Z,27.87
2018-07-11T07:47:01.345Z,24.20
2018-07-11T07:49:30.941Z,27.70
2018-07-11T07:51:59.810Z,29.70
2018-07-11T07:54:28.890Z,25.17
2018-07-11T07:56:57.389Z,25.90
2018-07-11T07:59:26.298Z,25.67
2018-07-11T08:01:55.161Z,23.43
2018-07-11T08:04:23.868Z,27.97
2018-07-11T08:06:52.560Z,31.47
2018-07-11T08:09:20.977Z,24.60
2018-07-11T08:11:49.473Z,26.43
2018-07-11T08:14:17.930Z,23.73
2018-07-11T08:16:46.627Z,19.73
2018-07-11T08:19:15.111Z,20.60
2018-07-11T08:21:43.617Z,25.40
2018-07-11T08:24:23.374Z,20.10
2018-07-11T08:28:38.181Z,19.27
2018-07-11T08:31:23.525Z,17.27
2018-07-11T08:34:13.164Z,18.50
2018-07-11T08:37:24.127Z,31.20
2018-07-11T08:42:11.146Z,16.60
2018-07-11T08:45:18.287Z,18.23
2018-07-11T08:48:20.182Z,15.73
2018-07-11T08:53:05.363Z,16.13
2018-07-11T08:55:41.466Z,16.20
2018-07-11T09:00:30.974Z,14.60
2018-07-11T09:05:13.462Z,17.37
2018-07-11T09:10:09.887Z,17.30
2018-07-11T09:13:00.606Z,16.17
2018-07-11T09:15:40.282Z,17.40
2018-07-11T09:18:36.071Z,15.27
2018-07-11T09:23:23.278Z,13.67
2018-07-11T09:25:51.774Z,12.27
2018-07-11T09:28:20.263Z,12.30
2018-07-11T09:30:48.786Z,15.00
2018-07-11T09:33:27.917Z,10.80
2018-07-11T09:35:56.745Z,14.00
2018-07-11T09:38:25.181Z,10.23
2018-07-11T09:40:54.197Z,12.23
2018-07-11T09:43:23.795Z,9.80
2018-07-11T09:45:52.891Z,11.00
2018-07-11T09:48:21.446Z,11.60
2018-07-11T09:50:50.234Z,14.83
2018-07-11T09:53:18.827Z,10.60
2018-07-11T09:55:47.410Z,10.97
2018-07-11T09:58:15.967Z,9.70
2018-07-11T10:00:49.900Z,11.30
2018-07-11T10:03:19.325Z,11.43
2018-07-11T10:05:47.888Z,11.37
2018-07-11T10:08:16.480Z,12.10
2018-07-11T10:10:45.081Z,13.90
2018-07-11T10:13:13.586Z,12.90
2018-07-11T10:15:42.046Z,13.60
2018-07-11T10:18:10.485Z,11.17
2018-07-11T10:20:38.929Z,11.90
2018-07-11T10:23:07.529Z,12.00
2018-07-11T10:25:36.826Z,15.13
2018-07-11T10:28:13.017Z,13.63
2018-07-11T10:30:41.518Z,15.53
2018-07-11T10:33:10.452Z,12.67
2018-07-11T10:35:39.016Z,15.13
2018-07-11T10:38:07.504Z,17.47
2018-07-11T10:40:35.970Z,14.97
2018-07-11T10:43:04.426Z,20.40
2018-07-11T10:45:32.901Z,18.23
2018-07-11T10:48:01.388Z,18.90
2018-07-11T10:50:29.913Z,16.60
2018-07-11T10:52:58.745Z,18.53
2018-07-11T10:55:27.446Z,16.10
2018-07-11T10:57:55.911Z,16.60
2018-07-11T11:00:36.663Z,19.67
2018-07-11T11:02:57.698Z,18.80
2018-07-11T11:05:33.043Z,20.00
2018-07-11T11:08:01.598Z,23.33
2018-07-11T11:10:30.091Z,21.40
2018-07-11T11:12:58.550Z,20.50
2018-07-11T11:15:27.036Z,23.10
2018-07-11T11:17:55.519Z,17.60
2018-07-11T11:20:24.022Z,19.17
2018-07-11T11:22:52.462Z,16.63
2018-07-11T11:25:21.113Z,18.30
2018-07-11T11:27:49.602Z,20.83
2018-07-11T11:30:18.097Z,18.13
2018-07-11T11:32:46.534Z,18.60
2018-07-11T11:35:14.997Z,18.10
2018-07-11T11:37:43.506Z,19.33
2018-07-11T11:40:11.930Z,18.70
2018-07-11T11:42:40.743Z,19.20
2018-07-11T11:45:09.186Z,18.47
2018-07-11T11:47:42.849Z,17.73
2018-07-11T11:50:11.334Z,24.53
2018-07-11T11:52:39.847Z,14.00
2018-07-11T11:55:08.289Z,12.30
2018-07-11T11:57:36.780Z,16.10
2018-07-11T12:00:05.281Z,20.10
2018-07-11T12:02:33.765Z,13.93
2018-07-11T12:05:02.577Z,12.40
2018-07-11T12:07:31.039Z,12.17
2018-07-11T12:09:59.480Z,10.33
2018-07-11T12:12:27.941Z,9.63
2018-07-11T12:14:56.371Z,13.57
2018-07-11T12:17:24.833Z,10.40
2018-07-11T12:19:53.294Z,12.57
2018-07-11T12:22:25.401Z,17.17
2018-07-11T12:24:53.989Z,9.23
2018-07-11T12:27:22.654Z,8.53
2018-07-11T12:29:52.279Z,7.50
2018-07-11T12:32:21.035Z,9.27
2018-07-11T12:34:49.623Z,8.80
2018-07-11T12:37:19.253Z,10.33
2018-07-11T12:39:54.449Z,13.63
2018-07-11T12:42:22.901Z,6.90
2018-07-11T12:44:51.346Z,7.43
2018-07-11T12:47:25.193Z,11.33
2018-07-11T12:49:53.650Z,11.33
2018-07-11T12:52:22.137Z,10.80
2018-07-11T12:54:50.785Z,7.83
2018-07-11T12:57:19.422Z,8.40
2018-07-11T12:59:48.502Z,10.67
2018-07-11T13:02:17.336Z,7.73
2018-07-11T13:04:46.076Z,8.17
2018-07-11T13:07:14.661Z,10.10
2018-07-11T13:09:43.222Z,12.70
2018-07-11T13:12:11.671Z,10.30
2018-07-11T13:14:40.210Z,10.10
2018-07-11T13:17:10.770Z,7.10
2018-07-11T13:19:39.213Z,11.03
2018-07-11T13:22:07.676Z,8.10
2018-07-11T13:24:36.100Z,12.50
2018-07-11T13:27:04.557Z,6.93
2018-07-11T13:29:33.061Z,9.90
2018-07-11T13:32:01.529Z,11.17
2018-07-11T13:34:29.950Z,12.20
2018-07-11T13:36:58.453Z,9.07
2018-07-11T13:39:26.905Z,11.70
2018-07-11T13:41:55.371Z,11.17
2018-07-11T13:44:23.833Z,9.03
2018-07-11T13:46:52.277Z,8.10
2018-07-11T13:49:20.806Z,8.97
2018-07-11T13:51:49.625Z,14.93
2018-07-11T13:54:18.233Z,10.20
2018-07-11T13:56:46.787Z,8.83
2018-07-11T13:59:15.682Z,12.53
2018-07-11T14:01:44.566Z,9.63
2018-07-11T14:04:13.309Z,13.40
2018-07-11T14:06:41.910Z,12.20
2018-07-11T14:09:10.571Z,11.20
2018-07-11T14:11:39.261Z,11.23
2018-07-11T14:14:07.935Z,11.20
2018-07-11T14:16:36.631Z,9.70
2018-07-11T14:19:05.482Z,12.90
2018-07-11T14:21:34.118Z,6.67
2018-07-11T14:24:02.871Z,9.20
2018-07-11T14:26:32.998Z,10.30
2018-07-11T14:29:02.763Z,7.83
2018-07-11T14:31:33.687Z,14.20
2018-07-11T14:34:03.916Z,6.53
2018-07-11T14:36:32.980Z,8.80
2018-07-11T14:39:01.915Z,11.80
2018-07-11T14:41:30.572Z,8.47
2018-07-11T14:43:59.318Z,11.23
2018-07-11T14:46:29.335Z,6.33
2018-07-11T14:48:58.302Z,7.37
2018-07-11T14:51:27.100Z,8.10
2018-07-11T14:53:56.690Z,7.33
2018-07-11T14:56:25.383Z,7.50
2018-07-11T14:58:58.326Z,9.57
2018-07-11T15:01:26.954Z,6.70
2018-07-11T15:03:55.561Z,8.13
2018-07-11T15:06:24.621Z,15.50
2018-07-11T15:08:54.849Z,7.27
2018-07-11T15:11:24.387Z,7.80
2018-07-11T15:13:53.234Z,8.20
2018-07-11T15:16:21.838Z,8.37
2018-07-11T15:18:51.087Z,9.73
2018-07-11T15:21:19.667Z,8.30
2018-07-11T15:23:48.245Z,12.93
2018-07-11T15:26:16.813Z,7.90
2018-07-11T15:28:47.423Z,8.70
2018-07-11T15:31:16.018Z,9.73
2018-07-11T15:33:44.680Z,12.73
2018-07-11T15:36:13.200Z,10.20
2018-07-11T15:38:41.831Z,10.70
2018-07-11T15:41:10.354Z,12.90
2018-07-11T15:43:39.479Z,10.10
2018-07-11T15:46:08.000Z,8.73
2018-07-11T15:48:36.462Z,10.73
2018-07-11T15:51:04.914Z,13.37
2018-07-11T15:53:33.443Z,8.00
2018-07-11T15:56:01.925Z,13.43
2018-07-11T15:58:32.995Z,8.97
2018-07-11T16:01:05.254Z,12.43
2018-07-11T16:03:37.534Z,9.10
2018-07-11T16:06:07.601Z,10.83
2018-07-11T16:08:36.066Z,7.70
2018-07-11T16:11:04.791Z,9.47
2018-07-11T16:13:33.341Z,6.90
2018-07-11T16:16:01.755Z,12.63
2018-07-11T16:18:30.308Z,8.50
2018-07-11T16:20:58.729Z,10.10
2018-07-11T16:23:27.217Z,12.40
2018-07-11T16:25:55.697Z,10.10
2018-07-11T16:28:24.189Z,12.53
2018-07-11T16:30:52.600Z,9.17
2018-07-11T16:33:21.106Z,9.70
2018-07-11T16:35:49.579Z,10.33
2018-07-11T16:38:18.026Z,8.40
2018-07-11T16:40:46.502Z,14.73
2018-07-11T16:43:15.026Z,11.30
2018-07-11T16:45:43.562Z,11.63
2018-07-11T16:48:12.063Z,18.10
2018-07-11T16:50:44.549Z,10.57
2018-07-11T16:53:13.579Z,14.20
2018-07-11T16:55:42.187Z,18.37
2018-07-11T16:58:12.243Z,13.60
2018-07-11T17:00:40.807Z,21.70
2018-07-11T17:03:12.574Z,17.10
2018-07-11T17:06:06.495Z,13.47
2018-07-11T17:08:37.722Z,15.63
2018-07-11T17:11:20.931Z,17.07
2018-07-11T17:13:59.139Z,15.00
2018-07-11T17:16:43.654Z,13.63
2018-07-11T17:19:14.393Z,11.43
2018-07-11T17:21:43.728Z,13.50
2018-07-11T17:24:14.954Z,14.40
2018-07-11T17:26:46.118Z,21.03
2018-07-11T17:29:18.518Z,12.23
2018-07-11T17:31:48.100Z,16.77
2018-07-11T17:34:17.039Z,13.63
2018-07-11T17:36:45.572Z,15.30
2018-07-11T17:39:14.946Z,14.43
2018-07-11T17:41:43.898Z,15.70
2018-07-11T17:44:12.528Z,14.23
2018-07-11T17:46:41.186Z,13.90
2018-07-11T17:49:17.797Z,17.80
2018-07-11T17:51:49.329Z,22.70
2018-07-11T17:54:18.076Z,22.10
2018-07-11T17:56:57.509Z,14.93
2018-07-11T17:59:35.308Z,18.10
2018-07-11T18:02:12.857Z,16.23
2018-07-11T18:04:52.198Z,18.60
2018-07-11T18:07:37.440Z,21.83
2018-07-11T18:10:07.766Z,18.00
2018-07-11T18:12:53.571Z,15.47
2018-07-11T18:16:41.850Z,19.27
2018-07-11T18:19:21.825Z,33.50
2018-07-11T18:23:07.179Z,19.83
2018-07-11T18:26:49.289Z,19.37
2018-07-11T18:29:25.479Z,39.10
2018-07-11T18:32:04.550Z,23.00
2018-07-11T18:35:40.357Z,20.80
2018-07-11T18:38:21.869Z,21.23
2018-07-11T18:41:06.989Z,24.03
2018-07-11T18:45:51.614Z,19.90
2018-07-11T18:48:38.085Z,23.10
2018-07-11T18:51:15.298Z,21.57
2018-07-11T18:53:50.954Z,23.27
2018-07-11T18:56:23.858Z,20.73
2018-07-11T18:58:57.699Z,23.83
2018-07-11T19:01:37.306Z,24.97
2018-07-11T19:05:20.105Z,24.57
2018-07-11T19:07:55.121Z,27.13
2018-07-11T19:11:34.574Z,23.10
2018-07-11T19:14:06.809Z,22.80
2018-07-11T19:16:52.126Z,23.87
2018-07-11T19:19:27.017Z,21.77
2018-07-11T19:22:22.677Z,22.63
2018-07-11T19:26:00.777Z,20.43
2018-07-11T19:29:10.641Z,20.80
2018-07-11T19:31:51.962Z,22.03
2018-07-11T19:34:32.973Z,22.57
2018-07-11T19:37:06.103Z,21.47
2018-07-11T19:39:43.182Z,22.80
2018-07-11T19:42:24.967Z,21.33
2018-07-11T19:45:43.423Z,24.63
2018-07-11T19:48:25.982Z,25.97
2018-07-11T19:51:06.171Z,25.40
2018-07-11T19:53:48.725Z,38.13
2018-07-11T19:56:26.009Z,32.27
2018-07-11T19:58:54.466Z,31.40
2018-07-11T20:01:22.979Z,38.20
2018-07-11T20:03:51.874Z,42.00
2018-07-11T20:06:21.213Z,42.17
2018-07-11T20:08:49.888Z,42.67
2018-07-11T20:11:18.992Z,50.13
2018-07-11T20:13:47.502Z,53.50
2018-07-11T20:16:16.056Z,52.73
2018-07-11T20:18:44.480Z,45.53
2018-07-11T20:24:03.322Z,50.60
2018-07-11T20:26:31.838Z,59.40
2018-07-11T20:29:00.370Z,50.30
2018-07-11T20:31:28.854Z,51.50
2018-07-11T20:33:57.318Z,51.63
2018-07-11T20:36:25.455Z,56.97
2018-07-11T20:38:53.961Z,51.37
2018-07-11T20:41:23.388Z,55.37
2018-07-11T20:43:51.951Z,54.00
2018-07-11T20:46:20.115Z,50.33
2018-07-11T20:48:48.692Z,60.37
2018-07-11T20:51:17.216Z,53.93
2018-07-11T20:53:45.810Z,64.23
2018-07-11T20:56:14.286Z,51.67
2018-07-11T20:58:53.851Z,61.90
2018-07-11T21:01:33.539Z,64.17
2018-07-11T21:04:11.461Z,63.23
2018-07-11T21:06:52.830Z,72.00
2018-07-11T21:09:32.434Z,65.97
2018-07-11T21:12:28.109Z,63.10
2018-07-11T21:16:05.071Z,66.87
2018-07-11T21:18:59.806Z,75.07
2018-07-11T21:21:28.264Z,70.30
2018-07-11T21:23:56.726Z,66.17
2018-07-11T21:26:24.875Z,65.37
2018-07-11T21:28:53.305Z,63.07
2018-07-11T21:31:21.784Z,67.63
2018-07-11T21:33:50.229Z,69.67
2018-07-11T21:36:18.667Z,66.50
2018-07-11T21:38:47.237Z,61.50
2018-07-11T21:41:15.681Z,69.47
2018-07-11T21:43:44.198Z,60.83
2018-07-11T21:46:13.458Z,61.43
2018-07-11T21:48:42.892Z,62.37
2018-07-11T21:51:26.673Z,63.17
2018-07-11T21:53:56.196Z,62.27
2018-07-11T21:56:24.695Z,63.47
2018-07-11T21:58:53.587Z,72.13
2018-07-11T22:01:22.039Z,59.23
2018-07-11T22:03:50.510Z,52.33
2018-07-11T22:06:18.981Z,56.67
2018-07-11T22:08:47.462Z,61.27
2018-07-11T22:11:26.019Z,59.90
2018-07-11T22:13:54.419Z,60.00
2018-07-11T22:16:22.951Z,62.03
2018-07-11T22:18:51.397Z,64.03
2018-07-11T22:21:18.762Z,61.83
2018-07-11T22:23:46.093Z,53.77
2018-07-11T22:26:13.715Z,53.47
2018-07-11T22:28:41.120Z,56.83
2018-07-11T22:31:25.093Z,52.23
2018-07-11T22:33:52.425Z,57.67
2018-07-11T22:36:19.747Z,55.20
2018-07-11T22:38:47.126Z,60.40
2018-07-11T22:41:14.464Z,61.27
2018-07-11T22:43:41.790Z,58.53
2018-07-11T22:46:09.110Z,60.17
2018-07-11T22:48:36.438Z,58.70
2018-07-11T22:51:03.762Z,53.57
2018-07-11T22:53:31.085Z,54.37
2018-07-11T22:55:58.406Z,53.80
2018-07-11T22:58:25.731Z,62.17
2018-07-11T23:00:53.050Z,64.23
2018-07-11T23:03:20.374Z,63.23
2018-07-11T23:05:47.702Z,61.87
2018-07-11T23:08:15.051Z,58.00
2018-07-11T23:10:42.354Z,59.87
2018-07-11T23:13:09.679Z,70.13
2018-07-11T23:15:37.010Z,72.13
2018-07-11T23:18:04.328Z,62.47
2018-07-11T23:20:31.675Z,72.50
2018-07-11T23:22:58.998Z,65.60
2018-07-11T23:25:26.318Z,69.50
2018-07-11T23:27:53.648Z,65.27
2018-07-11T23:30:20.957Z,73.03
2018-07-11T23:32:48.278Z,67.47
2018-07-11T23:35:15.601Z,63.50
2018-07-11T23:37:42.938Z,63.90
2018-07-11T23:40:10.256Z,56.73
2018-07-11T23:42:37.581Z,60.37
2018-07-11T23:45:04.950Z,58.17
2018-07-11T23:47:32.277Z,63.40
2018-07-11T23:49:59.622Z,59.70
2018-07-11T23:52:27.003Z,60.73
2018-07-11T23:54:54.325Z,56.97
2018-07-11T23:57:21.652Z,55.70
2018-07-11T23:59:48.970Z,60.37
